Flight Track Log - Related Links

Times and Time Zones

All times are in EDT time to prevent confusion due to time zone crossing. See the SWA2436 flight status page for this flight to view local times or setup timezone preferences in your user account.

Time Position Orientation Groundspeed Altitude Reporting Facility
EDT Latitude Longitude Course Direction KTS MPH feet Rate Location/Type
Fri 09:14:42 PM 39.1747 -76.7242 171° South 178 205 2,000  Level Washington Center
Fri 09:15:37 PM 39.1333 -76.7333 190° South 251 289 4,500 2,505 Climbing Potomac TRACON
Fri 09:17:44 PM 39.0133 -76.5908 137° Southeast 294 338 9,600 2,214 Climbing Washington Center
Fri 09:18:44 PM 38.9344 -76.5522 159° South 289 333 11,400 2,150 Climbing Washington Center
Fri 09:19:44 PM 38.8306 -76.5189 166° South 332 382 13,900 1,322 Climbing Washington Center
Fri 09:20:00 PM 38.5233 -76.7147 171° South  Level FlightAware Approximate
Fri 09:20:42 PM 38.7386 -76.5631 201° Southwest 339 390 14,000  Level Washington Center
Fri 09:21:42 PM 38.6522 -76.6417 215° Southwest 349 402 16,400 2,579 Climbing Washington Center
Fri 09:22:43 PM 38.5600 -76.7147 212° Southwest 375 432 19,200 2,579 Climbing Washington Center
Fri 09:23:43 PM 38.4475 -76.7103 178° South 380 437 21,600 2,281 Climbing Washington Center
Fri 09:24:44 PM 38.3267 -76.6953 174° South 405 466 23,800 1,967 Climbing Washington Center
Fri 09:25:45 PM 38.2078 -76.6778 173° South 420 483 25,600 1,729 Climbing Washington Center
Fri 09:26:42 PM 38.0831 -76.6628 175° South 436 502 27,200 1,866 Climbing Washington Center
Fri 09:27:44 PM 37.9581 -76.6453 174° South 449 517 29,300 1,950 Climbing Washington Center
Fri 09:28:42 PM 37.8331 -76.6278 174° South 460 529 31,100 1,831 Climbing Washington Center
Fri 09:29:42 PM 37.7058 -76.6103 174° South 460 529 32,900 1,686 Climbing Washington Center
Fri 09:30:43 PM 37.5789 -76.5981 176° South 460 529 34,500 1,500 Climbing Washington Center
Fri 09:31:42 PM 37.4533 -76.6383 194° South 453 521 35,900 1,488 Climbing Washington Center
Fri 09:32:44 PM 37.3297 -76.6836 196° South 464 534 37,500 1,350 Climbing Washington Center
Fri 09:33:42 PM 37.2042 -76.7289 196° South 470 541 38,600 1,169 Climbing Washington Center
Fri 09:34:42 PM 37.0808 -76.7739 196° South 475 547 39,800 694 Climbing Washington Center
Fri 09:35:43 PM 36.9761 -76.8139 197° South 467 537 40,000 99 Climbing Washington Center
Fri 09:36:43 PM 36.8419 -76.8636 197° South 461 531 40,000  Level Washington Center
Fri 09:37:42 PM 36.7206 -76.9083 196° South 461 531 40,000  Level Washington Center
Fri 09:38:42 PM 36.6011 -76.9503 196° South 461 531 40,000  Level Washington Center
Fri 09:39:43 PM 36.4797 -76.9919 195° South 461 531 40,000  Level Washington Center
Fri 09:40:42 PM 36.3603 -77.0389 198° South 461 531 40,000  Level Washington Center
Fri 09:41:42 PM 36.2408 -77.0806 196° South 461 531 40,000  Level Washington Center
Fri 09:42:42 PM 36.1192 -77.1219 195° South 461 531 40,000  Level Washington Center
Fri 09:43:43 PM 36.0039 -77.1633 196° South 455 524 40,000  Level Washington Center
Fri 09:44:42 PM 35.8822 -77.2044 195° South 455 524 40,000  Level Washington Center
Fri 09:45:42 PM 35.7628 -77.2481 197° South 455 524 40,000  Level Washington Center
Fri 09:46:43 PM 35.6392 -77.2892 195° South 460 529 40,000  Level Washington Center
Fri 09:47:44 PM 35.5197 -77.3300 196° South 460 529 40,000  Level Washington Center
Fri 09:48:44 PM 35.3958 -77.3731 196° South 460 529 40,000  Level Washington Center
Fri 09:49:42 PM 35.2764 -77.4136 195° South 460 529 40,000  Level Washington Center
Fri 09:50:42 PM 35.1547 -77.4542 195° South 460 529 40,000  Level Washington Center
Fri 09:51:42 PM 35.0331 -77.4969 196° South 460 529 40,000  Level Washington Center
Fri 09:52:44 PM 34.9114 -77.5372 195° South 460 529 40,000  Level Washington Center
Fri 09:53:44 PM 34.7958 -77.5850 199° South 451 519 40,000  Level Washington Center
Fri 09:54:42 PM 34.6742 -77.6250 195° South 451 519 40,000  Level Washington Center
Fri 09:55:44 PM 34.5525 -77.6647 195° South 451 519 40,000  Level Washington Center
Fri 09:56:43 PM 34.4328 -77.7047 195° South 451 519 40,000  Level Washington Center
Fri 09:57:42 PM 34.3111 -77.7467 196° South 451 519 40,000  Level Washington Center
Fri 09:58:42 PM 34.1956 -77.7814 194° South 470 541 40,000  Level Washington Center
Fri 09:59:27 PM 34.0992 -77.8119 195° South 458 527 40,000  Level Jacksonville Center
Fri 10:00:27 PM 33.9797 -77.8517 195° South 446 513 40,000  Level Jacksonville Center
Fri 10:01:27 PM 33.8544 -77.8986 197° South 455 524 40,000  Level Jacksonville Center
Fri 10:02:27 PM 33.7306 -77.9308 192° South 460 529 40,000  Level Jacksonville Center
Fri 10:03:27 PM 33.6053 -77.9803 198° South 466 536 40,000  Level Jacksonville Center
Fri 10:04:27 PM 33.4814 -78.0194 195° South 471 542 40,000  Level Jacksonville Center
Fri 10:05:27 PM 33.3578 -78.0586 195° South 471 542 40,000  Level Jacksonville Center
Fri 10:06:27 PM 33.2383 -78.0972 195° South 466 536 40,000  Level Jacksonville Center
Fri 10:07:27 PM 33.1125 -78.1411 196° South 466 536 40,000  Level Jacksonville Center
Fri 10:08:27 PM 32.9889 -78.1825 196° South 466 536 40,000  Level Jacksonville Center
Fri 10:09:27 PM 32.8694 -78.2208 195° South 466 536 40,000  Level Jacksonville Center
Fri 10:10:27 PM 32.7456 -78.2569 194° South 466 536 40,000  Level Jacksonville Center
Fri 10:11:27 PM 32.6239 -78.3003 197° South 466 536 40,000  Level Jacksonville Center
Fri 10:12:27 PM 32.5000 -78.3383 195° South 466 536 40,000  Level Jacksonville Center
Fri 10:13:27 PM 32.3761 -78.3767 195° South 466 536 40,000  Level Jacksonville Center
Fri 10:14:27 PM 32.2544 -78.4194 197° South 466 536 40,000  Level Jacksonville Center
Fri 10:15:27 PM 32.1308 -78.4597 195° South 466 536 40,000  Level Jacksonville Center
Fri 10:16:27 PM 32.0047 -78.5003 195° South 466 536 40,000  Level Jacksonville Center
Fri 10:17:27 PM 31.8892 -78.5350 194° South 460 529 40,000  Level Jacksonville Center
Fri 10:18:27 PM 31.7675 -78.5775 197° South 460 529 40,000  Level Jacksonville Center
Fri 10:19:27 PM 31.6456 -78.6147 195° South 453 521 40,000  Level Jacksonville Center
Fri 10:20:27 PM 31.5256 -78.6519 195° South 453 521 40,000  Level Jacksonville Center
Fri 10:21:27 PM 31.4019 -78.6942 196° South 453 521 40,000  Level Jacksonville Center
Fri 10:22:27 PM 31.2797 -78.7289 194° South 453 521 40,000  Level Jacksonville Center
Fri 10:23:27 PM 31.1558 -78.7706 196° South 453 521 40,000  Level Jacksonville Center
Fri 10:24:27 PM 31.0361 -78.8075 195° South 453 521 40,000  Level Jacksonville Center
Fri 10:25:27 PM 30.9142 -78.8442 194° South 453 521 40,000  Level Jacksonville Center
Fri 10:26:27 PM 30.7922 -78.8833 195° South 459 528 40,000  Level Jacksonville Center
Fri 10:27:27 PM 30.6639 -78.9178 193° South 453 521 40,000  Level Jacksonville Center
Fri 10:28:27 PM 30.5461 -78.9586 197° South 458 527 40,000  Level Jacksonville Center
Fri 10:31:07 PM 30.2322 -79.0453 193° South 446 513 40,000  Level Miami Center
Fri 10:32:05 PM 30.0919 -79.0878 195° South 441 507 40,000  Level Miami Center
Fri 10:33:06 PM 29.9686 -79.1164 191° South 447 514 40,000  Level Miami Center
Fri 10:34:07 PM 29.8450 -79.1497 193° South 452 520 40,000  Level Miami Center
Fri 10:35:04 PM 29.7194 -79.1806 192° South 452 520 40,000  Level Miami Center
Fri 10:36:04 PM 29.5936 -79.2111 192° South 452 520 40,000  Level Miami Center
Fri 10:37:05 PM 29.4703 -79.2419 192° South 457 526 40,000  Level Miami Center
Fri 10:38:05 PM 29.3486 -79.2725 192° South 457 526 40,000  Level Miami Center
Fri 10:39:04 PM 29.2250 -79.3056 193° South 452 520 40,000  Level Miami Center
Fri 10:40:05 PM 29.1014 -79.3361 192° South 452 520 40,000  Level Miami Center
Fri 10:41:07 PM 28.9758 -79.3664 192° South 452 520 40,000  Level Miami Center
Fri 10:42:05 PM 28.8542 -79.3992 193° South 452 520 40,000  Level Miami Center
Fri 10:43:05 PM 28.7242 -79.4294 192° South 457 526 40,000  Level Miami Center
Fri 10:44:05 PM 28.5986 -79.4597 192° South 463 533 40,000  Level Miami Center
Fri 10:45:06 PM 28.4725 -79.4944 194° South 468 539 40,000  Level Miami Center
Fri 10:46:04 PM 28.3428 -79.5244 192° South 468 539 40,000  Level Miami Center
Fri 10:47:05 PM 28.2147 -79.5567 193° South 468 539 40,000  Level Miami Center
Fri 10:48:05 PM 28.0889 -79.5844 191° South 468 539 40,000  Level Miami Center
Fri 10:49:17 PM 27.9342 -79.6067 187° South 468 539 40,000 -229 Level Miami Center
Fri 10:50:16 PM 27.8253 -79.6250 188° South 458 527 39,500 -1,650 Descending Miami Center
Fri 10:51:17 PM 27.6892 -79.6428 187° South 453 521 36,700 -2,902 Descending Miami Center
Fri 10:52:18 PM 27.5656 -79.6608 187° South 448 516 33,600 -3,174 Descending Miami Center
Fri 10:53:18 PM 27.4419 -79.6814 188° South 448 516 30,300 -3,223 Descending Miami Center
Fri 10:54:19 PM 27.3269 -79.6994 188° South 453 521 27,100 -3,102 Descending Miami Center
Fri 10:55:16 PM 27.2053 -79.7175 188° South 453 521 24,200 -3,102 Descending Miami Center
Fri 10:56:17 PM 27.0756 -79.7378 188° South 437 503 21,000 -2,850 Descending Miami Center
Fri 10:57:16 PM 26.9644 -79.7536 187° South 424 488 18,500 -2,500 Descending Miami Center
Fri 10:58:17 PM 26.8556 -79.7694 187° South 402 463 16,000 -2,650 Descending Miami Center
Fri 10:59:16 PM 26.7508 -79.7856 188° South 394 453 13,200 -2,752 Descending Miami Center
Fri 11:00:06 PM 26.6628 -79.7997 188° South 370 426 11,000 -1,806 Descending Miami Center
Fri 11:00:49 PM 26.5978 -79.8097 188° South 345 397 10,400 -1,130 Descending Miami Center
Fri 11:02:40 PM 26.4492 -79.8292 187° South 298 343 8,100 -787 Descending Miami Center
Fri 11:03:52 PM 26.3667 -79.8733 206° Southwest 282 325 8,000 -350 Descending Miami Center
Fri 11:04:40 PM 26.3156 -79.9231 221° Southwest 286 329 7,400 -982 Descending Miami Center
Fri 11:05:42 PM 26.2667 -79.9681 220° Southwest 292 336 6,200 -1,366 Descending Miami Center
Fri 11:06:43 PM 26.2003 -80.0383 224° Southwest 287 330 4,600 -1,119 Descending Miami Center
Fri 11:07:40 PM 26.1656 -80.1067 240° Southwest 258 297 4,000 -308 Descending Miami Center
Fri 11:08:40 PM 26.1597 -80.1783 265° West 238 274 4,000  Level Miami Center
Fri 11:09:43 PM 26.1497 -80.2428 260° West 238 274 4,000 -85 Level Miami Center
Fri 11:11:01 PM 26.1453 -80.3469 267° West 225 259 3,800 -522 Descending Miami Center
Fri 11:12:01 PM 26.1131 -80.3783 221° Southwest 167 192 2,800 -871 Descending Miami Center
Fri 11:13:05 PM 26.0847 -80.3450 133° Southeast 162 186 2,000 -462 Descending Miami Center
Fri 11:14:11 PM 26.0756 -80.2917 101° East 163 188 1,800 -331 Descending Miami Center
Fri 11:15:12 PM 26.0744 -80.2453 92° East 124 143 1,300 -517 Descending Miami Center
Fri 11:16:07 PM 26.0753 -80.2131 88° East 124 143 800 -545 Descending Miami Center
Fri 11:18:00 PM 26.0667 -80.1500 103° East  Level FlightAware Approximate
Fri 11:25:00 PM 26.0726 -80.1527 103° East  Level Estimated

Login

Don't have an account? Register now (free) for customized features, flight alerts, and more!